sensor_id;sensor_type;location;lat;lon;timestamp;temperature;humidity
59208;DHT22;44977;53.132;6.408;2023-04-01T00:02:22;10.20;99.90
59208;DHT22;44977;53.132;6.408;2023-04-01T00:07:22;10.20;99.90
59208;DHT22;44977;53.132;6.408;2023-04-01T00:12:23;10.20;99.90
59208;DHT22;44977;53.132;6.408;2023-04-01T00:17:25;10.20;99.90
59208;DHT22;44977;53.132;6.408;2023-04-01T00:22:26;10.20;99.90
59208;DHT22;44977;53.132;6.408;2023-04-01T00:27:27;10.20;99.90
59208;DHT22;44977;53.132;6.408;2023-04-01T00:32:28;10.10;99.90
59208;DHT22;44977;53.132;6.408;2023-04-01T00:37:31;10.20;99.90
59208;DHT22;44977;53.132;6.408;2023-04-01T00:42:34;10.20;99.90
59208;DHT22;44977;53.132;6.408;2023-04-01T00:47:35;10.20;99.90
59208;DHT22;44977;53.132;6.408;2023-04-01T00:52:36;10.10;99.90
59208;DHT22;44977;53.132;6.408;2023-04-01T00:57:37;10.10;99.90
59208;DHT22;44977;53.132;6.408;2023-04-01T01:02:41;10.10;99.90
59208;DHT22;44977;53.132;6.408;2023-04-01T01:08:06;10.10;99.90
59208;DHT22;44977;53.132;6.408;2023-04-01T01:13:11;10.10;99.90
59208;DHT22;44977;53.132;6.408;2023-04-01T01:28:59;10.10;99.90
59208;DHT22;44977;53.132;6.408;2023-04-01T01:39:23;10.10;99.90
59208;DHT22;44977;53.132;6.408;2023-04-01T01:44:28;10.10;99.90
59208;DHT22;44977;53.132;6.408;2023-04-01T01:49:32;10.10;99.90
59208;DHT22;44977;53.132;6.408;2023-04-01T01:54:33;10.10;99.90
59208;DHT22;44977;53.132;6.408;2023-04-01T01:59:36;10.00;99.90
59208;DHT22;44977;53.132;6.408;2023-04-01T02:04:40;10.00;99.90
59208;DHT22;44977;53.132;6.408;2023-04-01T02:09:43;10.00;99.90
59208;DHT22;44977;53.132;6.408;2023-04-01T02:14:50;10.00;99.90
59208;DHT22;44977;53.132;6.408;2023-04-01T02:20:06;9.90;99.90
59208;DHT22;44977;53.132;6.408;2023-04-01T02:25:13;10.00;99.90
59208;DHT22;44977;53.132;6.408;2023-04-01T02:30:16;10.00;99.90
59208;DHT22;44977;53.132;6.408;2023-04-01T02:35:17;10.00;99.90
59208;DHT22;44977;53.132;6.408;2023-04-01T02:40:18;9.90;99.90
59208;DHT22;44977;53.132;6.408;2023-04-01T02:45:19;10.00;99.90
59208;DHT22;44977;53.132;6.408;2023-04-01T02:50:20;10.00;99.90
59208;DHT22;44977;53.132;6.408;2023-04-01T02:55:21;10.00;99.90
59208;DHT22;44977;53.132;6.408;2023-04-01T03:00:21;9.90;99.90
59208;DHT22;44977;53.132;6.408;2023-04-01T03:05:23;9.90;99.90
59208;DHT22;44977;53.132;6.408;2023-04-01T03:10:23;9.90;99.90
59208;DHT22;44977;53.132;6.408;2023-04-01T03:15:24;9.90;99.90
59208;DHT22;44977;53.132;6.408;2023-04-01T03:20:25;9.90;99.90
59208;DHT22;44977;53.132;6.408;2023-04-01T03:25:26;9.90;99.90
59208;DHT22;44977;53.132;6.408;2023-04-01T03:30:29;9.90;99.90
59208;DHT22;44977;53.132;6.408;2023-04-01T03:35:34;9.90;99.90
59208;DHT22;44977;53.132;6.408;2023-04-01T03:40:36;9.90;99.90
59208;DHT22;44977;53.132;6.408;2023-04-01T03:45:49;10.00;99.90
59208;DHT22;44977;53.132;6.408;2023-04-01T03:50:51;9.90;99.90
59208;DHT22;44977;53.132;6.408;2023-04-01T03:55:51;9.90;99.90
59208;DHT22;44977;53.132;6.408;2023-04-01T04:00:52;9.90;99.90
59208;DHT22;44977;53.132;6.408;2023-04-01T04:05:53;9.90;99.90
59208;DHT22;44977;53.132;6.408;2023-04-01T04:10:56;9.90;99.90
59208;DHT22;44977;53.132;6.408;2023-04-01T04:15:58;9.90;99.90
59208;DHT22;44977;53.132;6.408;2023-04-01T04:20:58;10.00;99.90
59208;DHT22;44977;53.132;6.408;2023-04-01T04:26:02;9.90;99.90
59208;DHT22;44977;53.132;6.408;2023-04-01T04:31:03;10.00;99.90
59208;DHT22;44977;53.132;6.408;2023-04-01T04:36:05;9.90;99.90
59208;DHT22;44977;53.132;6.408;2023-04-01T04:41:11;9.90;99.90
59208;DHT22;44977;53.132;6.408;2023-04-01T04:46:13;9.90;99.90
59208;DHT22;44977;53.132;6.408;2023-04-01T04:51:17;9.90;99.90
59208;DHT22;44977;53.132;6.408;2023-04-01T04:56:20;9.90;99.90
59208;DHT22;44977;53.132;6.408;2023-04-01T05:01:21;9.90;99.90
59208;DHT22;44977;53.132;6.408;2023-04-01T05:06:21;9.90;99.90
59208;DHT22;44977;53.132;6.408;2023-04-01T05:11:22;9.90;99.90
59208;DHT22;44977;53.132;6.408;2023-04-01T05:16:23;9.90;99.90
59208;DHT22;44977;53.132;6.408;2023-04-01T05:21:24;10.00;99.90
59208;DHT22;44977;53.132;6.408;2023-04-01T05:26:24;10.00;99.90
59208;DHT22;44977;53.132;6.408;2023-04-01T05:31:25;9.90;99.90
59208;DHT22;44977;53.132;6.408;2023-04-01T05:36:26;9.90;99.90
59208;DHT22;44977;53.132;6.408;2023-04-01T05:41:27;9.90;99.90
59208;DHT22;44977;53.132;6.408;2023-04-01T05:46:28;10.00;99.90
59208;DHT22;44977;53.132;6.408;2023-04-01T05:51:28;9.90;99.90
59208;DHT22;44977;53.132;6.408;2023-04-01T05:56:29;9.90;99.90
59208;DHT22;44977;53.132;6.408;2023-04-01T06:01:30;9.90;99.90
59208;DHT22;44977;53.132;6.408;2023-04-01T06:06:31;9.90;99.90
59208;DHT22;44977;53.132;6.408;2023-04-01T06:33:09;10.00;99.90
59208;DHT22;44977;53.132;6.408;2023-04-01T06:44:11;10.00;99.90
59208;DHT22;44977;53.132;6.408;2023-04-01T06:54:50;10.10;99.90
59208;DHT22;44977;53.132;6.408;2023-04-01T06:59:54;10.10;99.90
59208;DHT22;44977;53.132;6.408;2023-04-01T07:04:58;10.10;99.90
59208;DHT22;44977;53.132;6.408;2023-04-01T07:10:00;10.10;99.90
59208;DHT22;44977;53.132;6.408;2023-04-01T07:20:30;10.20;99.90
59208;DHT22;44977;53.132;6.408;2023-04-01T07:25:38;10.20;99.90
59208;DHT22;44977;53.132;6.408;2023-04-01T07:30:50;10.20;99.90
59208;DHT22;44977;53.132;6.408;2023-04-01T07:35:58;10.20;99.90
59208;DHT22;44977;53.132;6.408;2023-04-01T08:12:51;10.20;99.90
59208;DHT22;44977;53.132;6.408;2023-04-01T08:23:13;10.30;99.90
59208;DHT22;44977;53.132;6.408;2023-04-01T08:29:02;10.30;99.90
59208;DHT22;44977;53.132;6.408;2023-04-01T08:33:46;10.30;99.90
59208;DHT22;44977;53.132;6.408;2023-04-01T08:38:57;10.30;99.90
59208;DHT22;44977;53.132;6.408;2023-04-01T08:55:31;10.50;99.90
59208;DHT22;44977;53.132;6.408;2023-04-01T09:00:52;10.50;99.90
59208;DHT22;44977;53.132;6.408;2023-04-01T09:06:33;10.60;99.90
59208;DHT22;44977;53.132;6.408;2023-04-01T09:28:25;10.80;99.90
59208;DHT22;44977;53.132;6.408;2023-04-01T09:39:29;10.90;99.90
59208;DHT22;44977;53.132;6.408;2023-04-01T09:44:48;10.80;99.90
59208;DHT22;44977;53.132;6.408;2023-04-01T09:50:14;10.80;99.90
59208;DHT22;44977;53.132;6.408;2023-04-01T10:06:17;10.60;99.90
59208;DHT22;44977;53.132;6.408;2023-04-01T10:17:33;10.50;99.90
59208;DHT22;44977;53.132;6.408;2023-04-01T10:27:59;10.50;99.90
59208;DHT22;44977;53.132;6.408;2023-04-01T10:54:46;10.40;99.90
59208;DHT22;44977;53.132;6.408;2023-04-01T11:11:11;10.40;99.90
59208;DHT22;44977;53.132;6.408;2023-04-01T11:21:37;10.30;99.90
59208;DHT22;44977;53.132;6.408;2023-04-01T11:33:12;10.30;99.90
59208;DHT22;44977;53.132;6.408;2023-04-01T11:43:16;10.20;99.90
59208;DHT22;44977;53.132;6.408;2023-04-01T12:10:02;10.30;99.90
59208;DHT22;44977;53.132;6.408;2023-04-01T12:20:49;10.40;99.90
59208;DHT22;44977;53.132;6.408;2023-04-01T12:36:59;10.40;99.90
59208;DHT22;44977;53.132;6.408;2023-04-01T13:09:13;10.40;99.90
59208;DHT22;44977;53.132;6.408;2023-04-01T13:15:07;10.40;99.90
59208;DHT22;44977;53.132;6.408;2023-04-01T13:25:33;10.40;99.90
59208;DHT22;44977;53.132;6.408;2023-04-01T13:31:01;10.30;99.90
59208;DHT22;44977;53.132;6.408;2023-04-01T13:36:21;10.30;99.90
59208;DHT22;44977;53.132;6.408;2023-04-01T13:57:36;10.10;99.90
59208;DHT22;44977;53.132;6.408;2023-04-01T14:03:14;10.10;99.90
59208;DHT22;44977;53.132;6.408;2023-04-01T14:13:37;10.00;99.90
59208;DHT22;44977;53.132;6.408;2023-04-01T14:29:21;9.90;99.90
59208;DHT22;44977;53.132;6.408;2023-04-01T14:34:50;9.80;99.90
59208;DHT22;44977;53.132;6.408;2023-04-01T14:46:01;9.70;99.90
59208;DHT22;44977;53.132;6.408;2023-04-01T14:51:16;9.60;99.90
59208;DHT22;44977;53.132;6.408;2023-04-01T14:56:44;9.60;99.90
59208;DHT22;44977;53.132;6.408;2023-04-01T15:02:09;9.50;99.90
59208;DHT22;44977;53.132;6.408;2023-04-01T15:07:20;9.40;99.90
59208;DHT22;44977;53.132;6.408;2023-04-01T15:23:25;9.30;99.90
59208;DHT22;44977;53.132;6.408;2023-04-01T15:29:17;9.20;99.90
59208;DHT22;44977;53.132;6.408;2023-04-01T15:56:15;8.80;99.90
59208;DHT22;44977;53.132;6.408;2023-04-01T16:12:53;8.60;99.90
59208;DHT22;44977;53.132;6.408;2023-04-01T16:23:47;8.50;99.90
59208;DHT22;44977;53.132;6.408;2023-04-01T16:28:54;8.40;99.90
59208;DHT22;44977;53.132;6.408;2023-04-01T16:34:08;8.40;99.90
59208;DHT22;44977;53.132;6.408;2023-04-01T16:44:25;8.20;99.90
59208;DHT22;44977;53.132;6.408;2023-04-01T16:49:42;8.20;99.90
59208;DHT22;44977;53.132;6.408;2023-04-01T16:55:12;8.10;99.90
59208;DHT22;44977;53.132;6.408;2023-04-01T17:00:36;8.10;99.90
59208;DHT22;44977;53.132;6.408;2023-04-01T17:11:04;8.00;99.90
59208;DHT22;44977;53.132;6.408;2023-04-01T17:21:54;7.90;99.90
59208;DHT22;44977;53.132;6.408;2023-04-01T17:32:34;7.70;99.90
59208;DHT22;44977;53.132;6.408;2023-04-01T17:43:28;7.60;99.90
59208;DHT22;44977;53.132;6.408;2023-04-01T17:55:20;7.60;99.90
59208;DHT22;44977;53.132;6.408;2023-04-01T18:00:01;7.50;99.90
59208;DHT22;44977;53.132;6.408;2023-04-01T18:16:01;7.40;99.90
59208;DHT22;44977;53.132;6.408;2023-04-01T18:21:06;7.40;99.90
59208;DHT22;44977;53.132;6.408;2023-04-01T18:26:32;7.30;99.90
59208;DHT22;44977;53.132;6.408;2023-04-01T18:31:43;7.20;99.90
59208;DHT22;44977;53.132;6.408;2023-04-01T18:36:53;7.20;99.90
59208;DHT22;44977;53.132;6.408;2023-04-01T18:47:38;7.20;99.90
59208;DHT22;44977;53.132;6.408;2023-04-01T18:52:44;7.20;99.90
59208;DHT22;44977;53.132;6.408;2023-04-01T18:57:52;7.10;99.90
59208;DHT22;44977;53.132;6.408;2023-04-01T19:03:02;7.10;99.90
59208;DHT22;44977;53.132;6.408;2023-04-01T19:08:27;7.00;99.90
59208;DHT22;44977;53.132;6.408;2023-04-01T19:29:52;6.80;99.90
59208;DHT22;44977;53.132;6.408;2023-04-01T19:51:59;6.60;99.90
59208;DHT22;44977;53.132;6.408;2023-04-01T20:02:38;6.50;99.90
59208;DHT22;44977;53.132;6.408;2023-04-01T20:07:48;6.50;99.90
59208;DHT22;44977;53.132;6.408;2023-04-01T20:13:24;6.50;99.90
59208;DHT22;44977;53.132;6.408;2023-04-01T20:29:18;6.30;99.90
59208;DHT22;44977;53.132;6.408;2023-04-01T20:40:28;6.20;99.90
59208;DHT22;44977;53.132;6.408;2023-04-01T20:45:42;6.20;99.90
59208;DHT22;44977;53.132;6.408;2023-04-01T21:12:48;6.00;99.90
59208;DHT22;44977;53.132;6.408;2023-04-01T21:34:43;5.90;99.90
59208;DHT22;44977;53.132;6.408;2023-04-01T21:45:22;5.90;99.90
59208;DHT22;44977;53.132;6.408;2023-04-01T21:51:04;5.80;99.90
59208;DHT22;44977;53.132;6.408;2023-04-01T22:06:44;5.80;99.90
59208;DHT22;44977;53.132;6.408;2023-04-01T22:28:39;5.60;99.90
59208;DHT22;44977;53.132;6.408;2023-04-01T22:33:52;5.60;99.90
59208;DHT22;44977;53.132;6.408;2023-04-01T22:50:19;5.50;99.90
59208;DHT22;44977;53.132;6.408;2023-04-01T22:55:27;5.40;99.90
59208;DHT22;44977;53.132;6.408;2023-04-01T23:00:33;5.40;99.90
59208;DHT22;44977;53.132;6.408;2023-04-01T23:06:15;5.30;99.90
59208;DHT22;44977;53.132;6.408;2023-04-01T23:11:15;5.30;99.90
59208;DHT22;44977;53.132;6.408;2023-04-01T23:16:30;5.30;99.90
59208;DHT22;44977;53.132;6.408;2023-04-01T23:21:41;5.30;99.90
59208;DHT22;44977;53.132;6.408;2023-04-01T23:27:08;5.20;99.90
59208;DHT22;44977;53.132;6.408;2023-04-01T23:32:24;5.20;99.90
59208;DHT22;44977;53.132;6.408;2023-04-01T23:37:26;5.00;99.90
59208;DHT22;44977;53.132;6.408;2023-04-01T23:42:32;5.00;99.90
59208;DHT22;44977;53.132;6.408;2023-04-01T23:47:39;5.00;99.90
59208;DHT22;44977;53.132;6.408;2023-04-01T23:52:49;5.00;99.90
